Terminal Aerodrome Forecast
Issued by NWS

Home | Current Version | Previous Version | Text Only | Print | Product List | Glossary On
Versions: 1 2 3 4 5 6 7 8 9 10 11 12 13 14 15 16
000
FTUS42 KMLB 171500 AAA
TAFSFB
TAF AMD
KSFB 171501Z 1715/1812 08018KT P6SM BKN026 OVC035
     FM171800 06014G22KT P6SM BKN040
     FM172200 06012KT P6SM VCSH SCT020 BKN030
     FM180200 02008KT P6SM -SHRA SCT008 BKN015 OVC020=

USA.gov is the U.S. government's official web portal to all federal, state and local government web resources and services.